ADDS METAR Data

Data at: 0502 UTC 20 Apr 2018

METAR for:CYQI (Yarmouth Arpt, NS, CN)
Text:CYQI 200454Z 30006KT 2SM BR FEW003 BKN015 OVC036 01/00 A2966 RMK SF2SC4NS2 SLP047
Temperature: 1.0°C ( 34°F)
Dewpoint: 0.0°C ( 32°F) [RH = 93%]
Pressure (altimeter):29.66 inches Hg (1004.5 mb) [Sea level pressure: 1004.7 mb]
Winds:from the WNW (300 degrees) at 7 MPH (6 knots; 3.1 m/s)
Visibility: 2.00 sm ( 3.22 km)
Ceiling:1500 feet AGL
Clouds: few clouds at 300 feet AGL, broken clouds at 1500 feet AGL, overcast cloud deck at 3600 feet AGL
Weather:BR (mist)